createdAt,value
2018-06-12T00:01:39.492Z,78.65
2018-06-12T00:04:08.638Z,78.40
2018-06-12T00:06:38.045Z,77.15
2018-06-12T00:09:08.061Z,77.37
2018-06-12T00:11:37.445Z,77.87
2018-06-12T00:14:06.801Z,78.27
2018-06-12T00:16:36.181Z,78.23
2018-06-12T00:19:05.640Z,77.84
2018-06-12T00:21:35.033Z,77.83
2018-06-12T00:24:04.442Z,78.85
2018-06-12T00:26:33.816Z,78.02
2018-06-12T00:29:03.213Z,78.37
2018-06-12T00:31:32.594Z,78.43
2018-06-12T00:34:01.985Z,78.53
2018-06-12T00:36:31.381Z,77.70
2018-06-12T00:39:00.794Z,77.88
2018-06-12T00:41:36.517Z,77.54
2018-06-12T00:44:05.921Z,78.49
2018-06-12T00:46:35.275Z,78.21
2018-06-12T00:49:04.428Z,77.99
2018-06-12T00:51:33.801Z,78.41
2018-06-12T00:54:03.220Z,78.13
2018-06-12T00:56:49.624Z,77.81
2018-06-12T00:59:19.096Z,77.98
2018-06-12T01:01:48.594Z,78.20
2018-06-12T01:04:17.996Z,78.37
2018-06-12T01:06:47.500Z,78.32
2018-06-12T01:09:16.936Z,79.00
2018-06-12T01:14:46.729Z,78.97
2018-06-12T01:17:16.113Z,78.84
2018-06-12T01:19:45.448Z,78.53
2018-06-12T01:22:14.805Z,78.40
2018-06-12T01:24:44.241Z,78.91
2018-06-12T01:27:13.652Z,78.73
2018-06-12T01:29:43.025Z,80.46
2018-06-12T01:32:12.414Z,80.84
2018-06-12T01:34:41.807Z,79.43
2018-06-12T01:37:11.236Z,79.54
2018-06-12T01:39:48.349Z,79.70
2018-06-12T01:42:17.700Z,78.88
2018-06-12T01:44:47.032Z,78.67
2018-06-12T01:47:16.420Z,79.12
2018-06-12T01:49:45.795Z,79.66
2018-06-12T01:52:15.144Z,80.04
2018-06-12T01:54:44.511Z,80.41
2018-06-12T01:57:13.882Z,79.46
2018-06-12T01:59:43.308Z,80.15
2018-06-12T02:02:12.690Z,81.16
2018-06-12T02:04:42.033Z,80.74
2018-06-12T02:07:11.396Z,81.11
2018-06-12T02:15:35.038Z,81.55
2018-06-12T02:18:04.461Z,81.16
2018-06-12T02:20:41.835Z,81.29
2018-06-12T02:23:11.257Z,81.86
2018-06-12T02:25:40.633Z,82.35
2018-06-12T02:28:10.173Z,81.63
2018-06-12T02:30:39.633Z,81.22
2018-06-12T02:33:09.001Z,82.02
2018-06-12T02:35:38.365Z,81.83
2018-06-12T02:38:13.765Z,83.01
2018-06-12T02:40:43.150Z,82.14
2018-06-12T02:43:12.518Z,82.75
2018-06-12T02:45:41.872Z,82.61
2018-06-12T02:48:11.242Z,82.06
2018-06-12T02:50:40.602Z,83.07
2018-06-12T02:53:09.949Z,83.55
2018-06-12T02:55:39.355Z,84.83
2018-06-12T02:58:08.713Z,85.14
2018-06-12T03:00:38.122Z,84.92
2018-06-12T03:03:07.484Z,85.31
2018-06-12T03:05:36.852Z,85.70
2018-06-12T03:08:06.366Z,85.77
2018-06-12T03:10:35.816Z,86.30
2018-06-12T03:13:05.208Z,86.53
2018-06-12T03:15:46.564Z,85.52
2018-06-12T03:18:15.960Z,86.04
2018-06-12T03:20:46.433Z,85.06
2018-06-12T03:23:15.880Z,85.63
2018-06-12T03:25:45.224Z,85.66
2018-06-12T03:28:14.620Z,86.25
2018-06-12T03:30:51.241Z,86.31
2018-06-12T03:33:20.630Z,85.83
2018-06-12T03:35:50.010Z,85.33
2018-06-12T03:38:20.313Z,85.36
2018-06-12T03:40:49.705Z,84.83
2018-06-12T03:43:19.204Z,86.06
2018-06-12T03:45:48.548Z,85.03
2018-06-12T03:48:23.717Z,85.79
2018-06-12T03:50:53.088Z,84.90
2018-06-12T03:53:22.541Z,85.17
2018-06-12T03:55:51.910Z,85.64
2018-06-12T03:58:21.244Z,85.91
2018-06-12T04:00:50.719Z,85.58
2018-06-12T04:03:20.106Z,86.17
2018-06-12T04:05:49.493Z,86.01
2018-06-12T04:08:18.918Z,85.04
2018-06-12T04:10:48.307Z,86.00
2018-06-12T04:13:17.766Z,87.17
2018-06-12T04:15:47.188Z,86.01
2018-06-12T04:18:16.532Z,86.17
2018-06-12T04:20:45.936Z,86.18
2018-06-12T04:23:15.308Z,85.82
2018-06-12T04:25:44.652Z,86.18
2018-06-12T04:28:14.077Z,85.55
2018-06-12T04:30:43.454Z,86.27
2018-06-12T04:33:12.918Z,86.68
2018-06-12T04:35:42.278Z,85.74
2018-06-12T04:38:11.634Z,86.02
2018-06-12T04:40:53.777Z,85.14
2018-06-12T04:43:23.165Z,86.16
2018-06-12T04:45:52.504Z,85.64
2018-06-12T04:48:21.855Z,85.91
2018-06-12T04:50:51.223Z,86.29
2018-06-12T04:53:23.584Z,86.18
2018-06-12T04:55:52.941Z,85.64
2018-06-12T04:58:22.393Z,85.83
2018-06-12T05:00:51.792Z,86.66
2018-06-12T05:03:21.244Z,86.45
2018-06-12T05:05:50.596Z,87.51
2018-06-12T05:08:20.021Z,86.73
2018-06-12T05:10:49.353Z,86.12
2018-06-12T05:13:18.704Z,86.35
2018-06-12T05:15:48.225Z,86.74
2018-06-12T05:18:25.276Z,85.86
2018-06-12T05:20:54.641Z,85.90
2018-06-12T05:26:24.615Z,86.08
2018-06-12T05:28:53.976Z,85.83
2018-06-12T05:31:28.782Z,85.28
2018-06-12T05:33:58.149Z,84.82
2018-06-12T05:36:27.510Z,85.17
2018-06-12T05:38:57.031Z,85.10
2018-06-12T05:41:26.402Z,84.06
2018-06-12T05:43:55.739Z,84.47
2018-06-12T05:46:25.180Z,84.18
2018-06-12T05:48:54.536Z,84.71
2018-06-12T05:51:23.940Z,83.92
2018-06-12T05:53:53.353Z,83.12
2018-06-12T05:56:23.048Z,84.63
2018-06-12T05:58:52.448Z,84.22
2018-06-12T06:01:21.874Z,83.52
2018-06-12T06:03:51.225Z,82.84
2018-06-12T06:06:20.566Z,81.91
2018-06-12T06:08:49.956Z,82.15
2018-06-12T06:11:19.322Z,82.25
2018-06-12T06:13:48.672Z,81.49
2018-06-12T06:16:21.606Z,83.19
2018-06-12T06:18:50.988Z,81.13
2018-06-12T06:21:20.420Z,80.30
2018-06-12T06:23:49.888Z,81.64
2018-06-12T06:26:19.180Z,80.41
2018-06-12T06:28:48.561Z,81.15
2018-06-12T06:31:17.958Z,81.03
2018-06-12T06:33:47.360Z,78.97
2018-06-12T06:36:16.726Z,78.60
2018-06-12T06:38:46.136Z,79.77
2018-06-12T06:41:15.496Z,79.94
2018-06-12T06:43:57.500Z,79.45
2018-06-12T06:46:26.861Z,79.56
2018-06-12T06:48:56.208Z,79.14
2018-06-12T06:51:25.550Z,79.36
2018-06-12T06:53:54.919Z,79.05
2018-06-12T06:56:24.304Z,78.30
2018-06-12T06:58:53.752Z,78.69
2018-06-12T07:01:23.109Z,77.54
2018-06-12T07:03:52.496Z,76.59
2018-06-12T07:06:21.824Z,76.56
2018-06-12T07:08:51.237Z,76.46
2018-06-12T07:11:20.582Z,75.62
2018-06-12T07:13:51.936Z,76.09
2018-06-12T07:16:21.293Z,75.34
2018-06-12T07:18:50.664Z,76.67
2018-06-12T07:21:23.292Z,76.76
2018-06-12T07:23:52.657Z,74.75
2018-06-12T07:26:22.000Z,73.78
2018-06-12T07:28:54.716Z,75.69
2018-06-12T07:31:24.080Z,74.11
2018-06-12T07:33:53.413Z,73.17
2018-06-12T07:36:22.739Z,73.22
2018-06-12T07:38:52.200Z,72.21
2018-06-12T07:41:21.592Z,72.84
2018-06-12T07:43:51.048Z,73.99
2018-06-12T07:46:20.393Z,73.96
2018-06-12T07:48:49.744Z,73.34
2018-06-12T07:51:19.124Z,73.18
2018-06-12T07:53:48.561Z,72.50
2018-06-12T07:56:17.908Z,73.59
2018-06-12T07:58:47.257Z,72.59
2018-06-12T08:01:16.876Z,73.54
2018-06-12T08:03:46.264Z,73.10
2018-06-12T08:06:15.696Z,73.01
2018-06-12T08:08:45.128Z,73.89
2018-06-12T08:11:14.540Z,74.36
2018-06-12T08:13:43.898Z,73.01
2018-06-12T08:16:13.357Z,71.12
2018-06-12T08:18:42.704Z,72.84
2018-06-12T08:21:12.060Z,74.80
2018-06-12T08:23:41.400Z,70.32
2018-06-12T08:26:35.439Z,71.72
2018-06-12T08:29:04.774Z,71.23
2018-06-12T08:31:33.851Z,71.40
2018-06-12T08:34:03.231Z,71.74
2018-06-12T08:36:32.561Z,72.01
2018-06-12T08:39:01.995Z,73.41
2018-06-12T08:41:31.341Z,75.02
2018-06-12T08:44:00.717Z,75.08
2018-06-12T08:46:30.133Z,77.36
2018-06-12T08:48:59.436Z,77.75
2018-06-12T08:51:32.105Z,77.87
2018-06-12T08:54:01.490Z,78.04
2018-06-12T08:56:30.864Z,78.90
2018-06-12T08:59:00.193Z,80.68
2018-06-12T09:01:29.530Z,77.83
2018-06-12T09:03:58.936Z,78.61
2018-06-12T09:06:28.269Z,79.77
2018-06-12T09:08:57.632Z,79.07
2018-06-12T09:11:27.049Z,79.51
2018-06-12T09:13:56.473Z,81.52
2018-06-12T09:16:25.829Z,80.76
2018-06-12T09:18:55.167Z,79.91
2018-06-12T09:21:24.521Z,80.86
2018-06-12T09:23:53.848Z,80.56
2018-06-12T09:26:23.236Z,81.99
2018-06-12T09:28:52.589Z,79.05
2018-06-12T09:31:21.933Z,81.04
2018-06-12T09:33:51.297Z,78.81
2018-06-12T09:36:25.936Z,78.54
2018-06-12T09:38:55.301Z,79.17
2018-06-12T09:41:24.632Z,76.78
2018-06-12T09:43:54.005Z,76.64
2018-06-12T09:46:23.466Z,75.59
2018-06-12T09:48:52.798Z,75.74
2018-06-12T09:51:22.165Z,75.28
2018-06-12T09:53:51.508Z,74.93
2018-06-12T09:56:20.945Z,74.56
2018-06-12T09:58:50.331Z,75.81
2018-06-12T10:01:20.681Z,73.79
2018-06-12T10:03:52.046Z,73.51
2018-06-12T10:06:21.417Z,75.52
2018-06-12T10:08:50.835Z,74.27
2018-06-12T10:11:20.178Z,72.84
2018-06-12T10:13:49.529Z,73.08
2018-06-12T10:16:18.923Z,69.78
2018-06-12T10:18:48.276Z,70.88
2018-06-12T10:21:17.635Z,70.21
2018-06-12T10:23:46.990Z,68.77
2018-06-12T10:26:16.366Z,69.88
2018-06-12T10:28:45.712Z,68.90
2018-06-12T10:31:15.091Z,70.06
2018-06-12T10:33:44.432Z,69.34
2018-06-12T10:36:13.815Z,69.87
2018-06-12T10:38:43.207Z,70.38
2018-06-12T10:41:12.662Z,68.97
2018-06-12T10:43:42.012Z,70.56
2018-06-12T10:46:11.345Z,69.52
2018-06-12T10:48:40.700Z,71.23
2018-06-12T10:51:10.093Z,69.12
2018-06-12T10:53:39.448Z,68.25
2018-06-12T10:56:08.816Z,67.82
2018-06-12T10:58:38.167Z,69.39
2018-06-12T11:01:07.564Z,67.93
2018-06-12T11:03:36.982Z,66.67
2018-06-12T11:06:06.309Z,67.26
2018-06-12T11:08:36.675Z,66.32
2018-06-12T11:11:05.995Z,68.74
2018-06-12T11:13:35.341Z,67.85
2018-06-12T11:16:04.689Z,66.46
2018-06-12T11:18:34.031Z,65.80
2018-06-12T11:21:03.384Z,66.21
2018-06-12T11:23:32.725Z,66.97
2018-06-12T11:26:02.056Z,68.95
2018-06-12T11:28:31.449Z,69.45
2018-06-12T11:31:00.794Z,69.18
2018-06-12T11:33:30.143Z,69.97
2018-06-12T11:35:59.481Z,71.66
2018-06-12T11:38:28.838Z,71.93
2018-06-12T11:40:58.240Z,73.07
2018-06-12T11:43:27.574Z,73.76
2018-06-12T11:45:56.924Z,71.93
2018-06-12T11:48:26.357Z,74.14
2018-06-12T11:50:55.749Z,76.73
2018-06-12T11:53:25.082Z,76.05
2018-06-12T11:55:54.417Z,76.93
2018-06-12T11:58:23.760Z,79.00
2018-06-12T12:00:53.136Z,76.53
2018-06-12T12:03:22.524Z,77.31
2018-06-12T12:05:51.923Z,77.93
2018-06-12T12:08:21.265Z,80.54
2018-06-12T12:10:50.636Z,79.93
2018-06-12T12:13:19.969Z,77.64
2018-06-12T12:15:49.325Z,78.16
2018-06-12T12:18:18.664Z,74.39
2018-06-12T12:20:48.022Z,75.67
2018-06-12T12:23:17.446Z,76.64
2018-06-12T12:25:46.745Z,77.23
2018-06-12T12:28:22.019Z,75.47
2018-06-12T12:30:51.360Z,75.46
2018-06-12T12:33:20.741Z,75.88
2018-06-12T12:35:50.112Z,74.99
2018-06-12T12:38:19.439Z,75.41
2018-06-12T12:40:48.811Z,74.59
2018-06-12T12:43:18.165Z,74.65
2018-06-12T12:45:47.547Z,72.82
2018-06-12T12:48:16.914Z,71.17
2018-06-12T12:50:46.263Z,72.91
2018-06-12T12:53:15.726Z,72.23
2018-06-12T12:55:45.060Z,69.47
2018-06-12T12:58:14.469Z,69.42
2018-06-12T13:00:43.832Z,64.98
2018-06-12T13:03:13.204Z,65.82
2018-06-12T13:05:42.654Z,68.11
2018-06-12T13:08:12.029Z,63.90
2018-06-12T13:10:41.361Z,64.67
2018-06-12T13:13:10.756Z,62.15
2018-06-12T13:15:40.105Z,60.95
2018-06-12T13:18:09.453Z,59.53
2018-06-12T13:20:38.849Z,61.34
2018-06-12T13:23:14.099Z,61.70
2018-06-12T13:25:43.450Z,65.73
2018-06-12T13:28:12.782Z,65.25
2018-06-12T13:30:42.132Z,62.55
2018-06-12T13:33:11.572Z,61.78
2018-06-12T13:35:40.993Z,62.25
2018-06-12T13:38:10.314Z,66.44
2018-06-12T13:40:39.640Z,66.54
2018-06-12T13:43:10.976Z,66.59
2018-06-12T13:45:40.301Z,68.95
2018-06-12T13:48:09.733Z,68.81
2018-06-12T13:50:39.077Z,67.81
2018-06-12T13:53:08.459Z,67.35
2018-06-12T13:55:37.814Z,69.18
2018-06-12T13:58:07.202Z,68.39
2018-06-12T14:00:36.572Z,71.67
2018-06-12T14:03:06.548Z,67.01
2018-06-12T14:05:35.914Z,67.85
2018-06-12T14:08:05.249Z,69.64
2018-06-12T14:10:34.598Z,67.23
2018-06-12T14:13:03.984Z,68.81
2018-06-12T14:15:33.371Z,68.81
2018-06-12T14:18:02.737Z,66.35
2018-06-12T14:20:32.088Z,63.39
2018-06-12T14:23:05.004Z,62.45
2018-06-12T14:25:34.336Z,61.72
2018-06-12T14:28:03.724Z,60.65
2018-06-12T14:30:33.072Z,61.18
2018-06-12T14:33:02.429Z,61.11
2018-06-12T14:35:31.797Z,60.94
2018-06-12T14:38:01.149Z,62.01
2018-06-12T14:40:30.535Z,60.52
2018-06-12T14:42:59.881Z,63.07
2018-06-12T14:45:29.213Z,62.92
2018-06-12T14:47:58.669Z,60.94
2018-06-12T14:50:28.693Z,61.64
2018-06-12T14:52:58.070Z,62.00
2018-06-12T15:04:30.959Z,62.54
2018-06-12T15:07:00.405Z,62.74
2018-06-12T15:09:29.765Z,61.93
2018-06-12T15:11:59.104Z,63.73
2018-06-12T15:14:28.454Z,63.53
2018-06-12T15:16:57.820Z,64.31
2018-06-12T15:19:27.169Z,62.30
2018-06-12T15:21:56.495Z,64.15
2018-06-12T15:24:25.833Z,61.65
2018-06-12T15:26:55.177Z,61.78
2018-06-12T15:29:24.509Z,61.90
2018-06-12T15:31:53.849Z,60.62
2018-06-12T15:34:23.199Z,60.19
2018-06-12T15:36:52.572Z,61.39
2018-06-12T15:39:21.964Z,60.80
2018-06-12T15:41:51.296Z,56.63
2018-06-12T15:44:20.636Z,55.11
2018-06-12T15:46:50.055Z,54.63
2018-06-12T15:49:19.423Z,53.38
2018-06-12T15:51:48.745Z,54.25
2018-06-12T15:54:18.098Z,52.38
2018-06-12T15:56:47.560Z,55.64
2018-06-12T15:59:16.949Z,55.73
2018-06-12T16:01:46.313Z,55.12
2018-06-12T16:04:15.636Z,55.95
2018-06-12T16:06:44.984Z,56.12
2018-06-12T16:09:14.376Z,55.37
2018-06-12T16:11:43.825Z,54.59
2018-06-12T16:14:13.153Z,53.12
2018-06-12T16:16:42.491Z,53.13
2018-06-12T16:19:11.853Z,53.27
2018-06-12T16:21:41.233Z,51.32
2018-06-12T16:24:10.541Z,52.04
2018-06-12T16:26:39.933Z,53.86
2018-06-12T16:29:09.297Z,53.21
2018-06-12T16:31:38.781Z,56.07
2018-06-12T16:34:08.125Z,56.20
2018-06-12T16:36:37.472Z,56.85
2018-06-12T16:39:08.676Z,58.19
2018-06-12T16:41:38.049Z,59.23
2018-06-12T16:44:10.744Z,59.11
2018-06-12T16:46:40.073Z,58.97
2018-06-12T16:49:09.425Z,57.56
2018-06-12T16:51:38.753Z,58.25
2018-06-12T16:54:08.185Z,58.66
2018-06-12T16:56:37.556Z,58.93
2018-06-12T16:59:07.008Z,59.20
2018-06-12T17:01:36.398Z,56.42
2018-06-12T17:04:06.489Z,56.41
2018-06-12T17:06:35.839Z,57.27
2018-06-12T17:09:07.896Z,57.15
2018-06-12T17:11:37.312Z,57.47
2018-06-12T17:14:06.993Z,59.15
2018-06-12T17:16:37.068Z,60.64
2018-06-12T17:19:07.224Z,59.76
2018-06-12T17:21:37.338Z,60.50
2018-06-12T17:24:09.013Z,61.69
2018-06-12T17:26:39.765Z,63.80
2018-06-12T17:29:11.019Z,63.27
2018-06-12T17:31:41.175Z,64.57
2018-06-12T17:34:12.470Z,65.01
2018-06-12T17:36:43.663Z,65.51
2018-06-12T17:39:15.217Z,64.58
2018-06-12T17:41:46.327Z,63.94
2018-06-12T17:44:17.767Z,64.65
2018-06-12T17:46:49.505Z,64.73
2018-06-12T17:49:21.217Z,65.14
2018-06-12T17:51:53.291Z,65.59
2018-06-12T17:54:25.373Z,66.16
2018-06-12T17:56:57.593Z,67.40
2018-06-12T17:59:29.768Z,67.65
2018-06-12T18:02:01.834Z,67.37
2018-06-12T18:04:33.871Z,68.21
2018-06-12T18:07:06.055Z,68.93
2018-06-12T18:09:37.973Z,68.81
2018-06-12T18:12:10.074Z,69.74
2018-06-12T18:14:42.215Z,69.90
2018-06-12T18:17:14.359Z,69.93
2018-06-12T18:19:54.838Z,70.69
2018-06-12T18:22:27.059Z,70.73
2018-06-12T18:24:59.272Z,71.01
2018-06-12T18:27:32.136Z,72.07
2018-06-12T18:30:04.978Z,72.73
2018-06-12T18:32:37.653Z,73.91
2018-06-12T18:35:10.988Z,73.64
2018-06-12T18:37:44.082Z,73.85
2018-06-12T18:40:16.394Z,75.83
2018-06-12T18:42:48.656Z,76.37
2018-06-12T18:45:21.600Z,76.16
2018-06-12T18:47:53.892Z,76.79
2018-06-12T18:50:26.184Z,77.01
2018-06-12T18:52:58.478Z,76.10
2018-06-12T18:55:30.780Z,77.63
2018-06-12T18:58:03.035Z,77.84
2018-06-12T19:00:36.192Z,77.19
2018-06-12T19:03:08.539Z,77.69
2018-06-12T19:05:40.799Z,77.19
2018-06-12T19:08:13.008Z,78.33
2018-06-12T19:10:45.264Z,78.31
2018-06-12T19:13:17.511Z,79.17
2018-06-12T19:15:50.076Z,78.81
2018-06-12T19:18:22.337Z,78.37
2018-06-12T19:20:54.625Z,78.85
2018-06-12T19:23:27.034Z,79.68
2018-06-12T19:25:59.332Z,79.23
2018-06-12T19:28:31.617Z,79.52
2018-06-12T19:31:03.936Z,79.74
2018-06-12T19:33:36.440Z,79.47
2018-06-12T19:36:08.820Z,80.15
2018-06-12T19:38:41.049Z,79.75
2018-06-12T19:41:13.345Z,80.37
2018-06-12T19:43:46.001Z,80.02
2018-06-12T19:46:18.296Z,80.30
2018-06-12T19:48:50.475Z,80.07
2018-06-12T19:51:22.827Z,80.29
2018-06-12T19:53:55.072Z,80.27
2018-06-12T19:56:27.453Z,80.69
2018-06-12T19:58:59.678Z,80.35
2018-06-12T20:01:32.049Z,80.61
2018-06-12T20:04:04.197Z,80.10
2018-06-12T20:06:41.566Z,79.38
2018-06-12T20:09:13.747Z,79.19
2018-06-12T20:11:46.086Z,80.35
2018-06-12T20:14:18.313Z,79.98
2018-06-12T20:16:50.677Z,79.66
2018-06-12T20:19:22.817Z,80.22
2018-06-12T20:21:54.967Z,80.27
2018-06-12T20:24:27.026Z,79.87
2018-06-12T20:26:59.296Z,80.20
2018-06-12T20:29:31.476Z,81.03
2018-06-12T20:32:03.803Z,80.21
2018-06-12T20:34:35.830Z,81.94
2018-06-12T20:37:08.115Z,81.53
2018-06-12T20:39:40.234Z,81.77
2018-06-12T20:42:12.295Z,81.46
2018-06-12T20:44:44.406Z,80.68
2018-06-12T20:47:16.505Z,82.19
2018-06-12T20:49:48.726Z,82.11
2018-06-12T20:52:20.779Z,82.62
2018-06-12T20:54:52.875Z,81.90
2018-06-12T20:57:25.117Z,80.98
2018-06-12T20:59:57.245Z,81.41
2018-06-12T21:02:29.289Z,81.93
2018-06-12T21:05:01.328Z,82.36
2018-06-12T21:07:33.335Z,82.43
2018-06-12T21:10:04.759Z,82.84
2018-06-12T21:12:34.834Z,81.86
2018-06-12T21:15:04.867Z,82.03
2018-06-12T21:17:34.572Z,81.80
2018-06-12T21:20:04.040Z,81.67
2018-06-12T21:22:33.468Z,82.05
2018-06-12T21:25:02.866Z,81.76
2018-06-12T21:27:32.216Z,82.18
2018-06-12T21:30:02.412Z,81.91
2018-06-12T21:32:31.732Z,82.04
2018-06-12T21:35:01.083Z,82.39
2018-06-12T21:37:30.416Z,82.55
2018-06-12T21:39:59.745Z,82.59
2018-06-12T21:42:29.100Z,82.00
2018-06-12T21:44:58.417Z,82.68
2018-06-12T21:47:27.781Z,81.81
2018-06-12T21:49:57.090Z,82.51
2018-06-12T21:52:26.456Z,81.87
2018-06-12T21:54:55.845Z,82.81
2018-06-12T21:57:25.232Z,83.94
2018-06-12T21:59:54.589Z,83.47
2018-06-12T22:02:23.934Z,81.82
2018-06-12T22:04:53.316Z,83.29
2018-06-12T22:07:22.644Z,82.83
2018-06-12T22:09:52.017Z,83.27
2018-06-12T22:12:21.375Z,83.56
2018-06-12T22:14:50.761Z,84.15
2018-06-12T22:17:20.121Z,84.83
2018-06-12T22:19:49.458Z,84.36
2018-06-12T22:22:18.798Z,85.36
2018-06-12T22:24:48.145Z,84.44
2018-06-12T22:27:17.476Z,84.96
2018-06-12T22:29:46.836Z,84.10
2018-06-12T22:32:16.258Z,84.90
2018-06-12T22:34:45.568Z,84.56
2018-06-12T22:37:14.908Z,84.46
2018-06-12T22:39:44.241Z,84.33
2018-06-12T22:42:13.592Z,83.51
2018-06-12T22:44:42.945Z,84.19
2018-06-12T22:47:12.288Z,84.24
2018-06-12T22:49:41.698Z,83.21
2018-06-12T22:52:11.033Z,82.83
2018-06-12T22:54:40.440Z,83.12
2018-06-12T22:57:09.791Z,82.98
2018-06-12T22:59:39.136Z,83.03
2018-06-12T23:02:08.518Z,82.63
2018-06-12T23:04:37.889Z,82.70
2018-06-12T23:07:10.516Z,81.66
2018-06-12T23:09:39.884Z,81.04
2018-06-12T23:12:09.235Z,81.07
2018-06-12T23:14:38.621Z,81.38
2018-06-12T23:17:08.020Z,80.98
2018-06-12T23:19:58.113Z,80.71
2018-06-12T23:22:27.417Z,80.38
2018-06-12T23:24:56.779Z,79.97
2018-06-12T23:27:26.099Z,78.76
2018-06-12T23:29:55.419Z,79.17
2018-06-12T23:32:24.784Z,78.77
2018-06-12T23:34:54.116Z,78.28
2018-06-12T23:37:23.495Z,76.85
2018-06-12T23:39:52.876Z,77.03
2018-06-12T23:42:22.223Z,75.78
2018-06-12T23:44:51.556Z,76.14
2018-06-12T23:47:20.920Z,75.31
2018-06-12T23:49:50.307Z,76.12
2018-06-12T23:52:19.628Z,75.91
2018-06-12T23:54:48.981Z,75.36
2018-06-12T23:57:18.333Z,75.65
2018-06-12T23:59:47.664Z,76.32
